createdAt,value
2019-02-19T00:01:50.494Z,37.97
2019-02-19T00:04:21.900Z,47.30
2019-02-19T00:06:53.361Z,37.97
2019-02-19T00:09:24.458Z,48.23
2019-02-19T00:11:55.676Z,40.40
2019-02-19T00:14:26.645Z,48.93
2019-02-19T00:16:58.198Z,45.33
2019-02-19T00:19:48.701Z,39.47
2019-02-19T00:22:20.773Z,41.40
2019-02-19T00:24:52.112Z,40.57
2019-02-19T00:27:23.198Z,39.53
2019-02-19T00:29:54.482Z,37.77
2019-02-19T00:32:25.977Z,38.37
2019-02-19T00:34:57.308Z,38.00
2019-02-19T00:37:28.628Z,36.93
2019-02-19T00:40:00.003Z,34.33
2019-02-19T00:42:31.110Z,38.83
2019-02-19T00:45:02.086Z,38.10
2019-02-19T00:47:33.425Z,42.20
2019-02-19T00:50:05.825Z,37.53
2019-02-19T00:52:36.802Z,35.00
2019-02-19T00:55:08.443Z,35.10
2019-02-19T00:57:40.074Z,31.00
2019-02-19T01:00:12.723Z,35.50
2019-02-19T01:02:43.793Z,32.90
2019-02-19T01:05:15.400Z,31.97
2019-02-19T01:07:46.583Z,33.20
2019-02-19T01:10:18.059Z,34.10
2019-02-19T01:12:49.149Z,31.37
2019-02-19T01:15:25.483Z,33.70
2019-02-19T01:17:53.333Z,33.20
2019-02-19T01:20:24.463Z,30.10
2019-02-19T01:22:55.830Z,35.63
2019-02-19T01:25:26.940Z,30.27
2019-02-19T01:27:57.895Z,29.13
2019-02-19T01:30:28.754Z,34.57
2019-02-19T01:33:00.224Z,27.80
2019-02-19T01:35:31.513Z,26.70
2019-02-19T01:38:02.297Z,27.73
2019-02-19T01:40:33.547Z,30.10
2019-02-19T01:43:04.701Z,26.37
2019-02-19T01:45:35.524Z,24.30
2019-02-19T01:48:07.022Z,27.27
2019-02-19T01:50:38.615Z,24.17
2019-02-19T01:53:10.042Z,29.67
2019-02-19T01:55:41.553Z,33.50
2019-02-19T01:58:12.947Z,29.70
2019-02-19T02:00:43.714Z,27.37
2019-02-19T02:03:15.197Z,25.13
2019-02-19T02:05:46.218Z,27.87
2019-02-19T02:08:17.401Z,28.93
2019-02-19T02:10:48.541Z,26.90
2019-02-19T02:13:19.690Z,27.20
2019-02-19T02:15:51.049Z,25.10
2019-02-19T02:18:22.605Z,27.07
2019-02-19T02:20:54.006Z,23.93
2019-02-19T02:23:25.299Z,22.77
2019-02-19T02:25:56.786Z,26.10
2019-02-19T02:28:27.765Z,23.90
2019-02-19T02:30:58.687Z,27.00
2019-02-19T02:33:29.704Z,26.00
2019-02-19T02:36:01.108Z,25.40
2019-02-19T02:38:32.039Z,22.73
2019-02-19T02:41:03.416Z,26.73
2019-02-19T02:43:34.698Z,26.80
2019-02-19T02:46:05.810Z,25.60
2019-02-19T02:48:36.777Z,25.33
2019-02-19T02:51:07.745Z,26.67
2019-02-19T02:53:39.364Z,27.73
2019-02-19T02:56:10.171Z,30.47
2019-02-19T02:58:41.384Z,29.07
2019-02-19T03:01:12.868Z,28.93
2019-02-19T03:03:44.228Z,30.53
2019-02-19T03:06:25.028Z,29.50
2019-02-19T03:08:56.035Z,30.27
2019-02-19T03:11:26.972Z,36.40
2019-02-19T03:13:58.466Z,27.63
2019-02-19T03:16:29.260Z,27.67
2019-02-19T03:19:00.135Z,29.57
2019-02-19T03:21:31.458Z,29.50
2019-02-19T03:24:03.022Z,26.50
2019-02-19T03:26:33.827Z,26.93
2019-02-19T03:29:05.135Z,27.43
2019-02-19T03:31:36.660Z,25.83
2019-02-19T03:34:08.108Z,30.73
2019-02-19T03:36:40.050Z,32.87
2019-02-19T03:39:11.652Z,28.30
2019-02-19T03:41:43.165Z,27.90
2019-02-19T03:44:14.173Z,28.23
2019-02-19T03:46:46.072Z,27.60
2019-02-19T03:49:17.025Z,27.50
2019-02-19T03:51:48.135Z,28.73
2019-02-19T03:54:19.296Z,27.93
2019-02-19T03:56:51.065Z,34.27
2019-02-19T03:59:22.396Z,27.93
2019-02-19T04:01:54.108Z,27.67
2019-02-19T04:04:26.840Z,25.10
2019-02-19T04:06:58.260Z,26.10
2019-02-19T04:09:29.402Z,26.47
2019-02-19T04:12:00.318Z,23.83
2019-02-19T04:14:31.692Z,28.60
2019-02-19T04:17:02.912Z,26.67
2019-02-19T04:19:34.498Z,27.77
2019-02-19T04:22:05.954Z,29.20
2019-02-19T04:24:36.773Z,25.97
2019-02-19T04:27:08.209Z,24.87
2019-02-19T04:29:39.775Z,27.67
2019-02-19T04:32:11.217Z,26.63
2019-02-19T04:34:42.558Z,25.53
2019-02-19T04:37:13.354Z,25.73
2019-02-19T04:39:44.672Z,27.60
2019-02-19T04:42:15.660Z,30.40
2019-02-19T04:44:47.068Z,28.40
2019-02-19T04:47:17.900Z,25.87
2019-02-19T04:49:48.899Z,24.57
2019-02-19T04:52:20.031Z,26.43
2019-02-19T04:54:51.508Z,24.90
2019-02-19T04:57:22.761Z,24.00
2019-02-19T04:59:54.291Z,25.80
2019-02-19T05:02:25.602Z,26.27
2019-02-19T05:04:56.883Z,25.70
2019-02-19T05:07:28.283Z,27.37
2019-02-19T05:09:59.815Z,23.73
2019-02-19T05:12:30.937Z,24.60
2019-02-19T05:15:02.495Z,24.83
2019-02-19T05:17:33.971Z,28.67
2019-02-19T05:20:05.622Z,29.83
2019-02-19T05:22:38.875Z,25.53
2019-02-19T05:25:10.455Z,27.97
2019-02-19T05:27:41.864Z,24.97
2019-02-19T05:30:13.823Z,28.27
2019-02-19T05:32:45.741Z,24.00
2019-02-19T05:35:17.851Z,26.97
2019-02-19T05:37:49.789Z,24.23
2019-02-19T05:40:21.769Z,27.43
2019-02-19T05:42:53.143Z,37.33
2019-02-19T05:45:24.467Z,29.70
2019-02-19T05:47:55.846Z,22.67
2019-02-19T05:50:27.112Z,27.53
2019-02-19T05:53:17.448Z,29.73
2019-02-19T05:55:48.698Z,25.03
2019-02-19T05:58:20.125Z,26.00
2019-02-19T06:00:51.661Z,27.63
2019-02-19T06:03:22.238Z,27.57
2019-02-19T06:05:52.863Z,27.23
2019-02-19T06:08:23.453Z,28.10
2019-02-19T06:10:54.068Z,29.30
2019-02-19T06:13:24.695Z,35.00
2019-02-19T06:15:55.286Z,35.10
2019-02-19T06:18:25.834Z,27.50
2019-02-19T06:20:56.545Z,28.73
2019-02-19T06:23:27.125Z,35.57
2019-02-19T06:25:57.769Z,40.77
2019-02-19T06:28:28.317Z,36.07
2019-02-19T06:30:58.950Z,42.40
2019-02-19T06:33:29.504Z,37.77
2019-02-19T06:35:59.993Z,34.80
2019-02-19T06:38:30.618Z,35.10
2019-02-19T06:41:02.050Z,39.70
2019-02-19T06:43:32.700Z,44.47
2019-02-19T06:46:03.344Z,42.10
2019-02-19T06:48:33.923Z,47.97
2019-02-19T06:51:04.484Z,46.83
2019-02-19T06:53:35.141Z,41.67
2019-02-19T06:56:05.788Z,48.37
2019-02-19T06:58:36.378Z,47.57
2019-02-19T07:01:07.127Z,48.37
2019-02-19T07:03:45.114Z,51.97
2019-02-19T07:06:15.841Z,41.17
2019-02-19T07:08:46.457Z,46.27
2019-02-19T07:11:17.148Z,40.70
2019-02-19T07:14:06.784Z,40.63
2019-02-19T07:16:37.420Z,37.23
2019-02-19T07:19:08.013Z,46.00
2019-02-19T07:21:38.764Z,36.90
2019-02-19T07:24:09.427Z,37.33
2019-02-19T07:26:40.283Z,36.77
2019-02-19T07:29:11.052Z,35.37
2019-02-19T07:31:42.186Z,34.90
2019-02-19T07:34:13.023Z,40.73
2019-02-19T07:36:44.079Z,37.20
2019-02-19T07:39:14.954Z,47.13
2019-02-19T07:41:45.970Z,48.70
2019-02-19T07:44:16.594Z,47.03
2019-02-19T07:46:47.183Z,45.73
2019-02-19T07:49:17.828Z,67.20
2019-02-19T07:51:49.177Z,48.70
2019-02-19T07:54:20.004Z,47.57
2019-02-19T07:56:50.676Z,70.00
2019-02-19T07:59:23.165Z,75.40
2019-02-19T08:01:54.625Z,78.03
2019-02-19T08:04:26.313Z,82.20
2019-02-19T08:06:57.741Z,68.37
2019-02-19T08:09:28.799Z,44.87
2019-02-19T08:12:00.063Z,44.40
2019-02-19T08:14:31.504Z,39.50
2019-02-19T08:17:03.058Z,45.00
2019-02-19T08:19:34.176Z,60.80
2019-02-19T08:22:05.437Z,60.60
2019-02-19T08:24:36.864Z,66.60
2019-02-19T08:27:07.698Z,53.20
2019-02-19T08:29:38.270Z,49.57
2019-02-19T08:32:08.856Z,50.67
2019-02-19T08:34:39.537Z,41.37
2019-02-19T08:37:10.101Z,35.57
2019-02-19T08:39:40.691Z,40.23
2019-02-19T08:42:11.305Z,41.80
2019-02-19T08:44:42.029Z,42.17
2019-02-19T08:47:13.018Z,36.83
2019-02-19T08:49:44.975Z,39.57
2019-02-19T08:52:15.526Z,38.17
2019-02-19T08:54:46.325Z,40.73
2019-02-19T08:57:17.080Z,36.87
2019-02-19T08:59:47.729Z,36.60
2019-02-19T09:02:18.586Z,37.97
2019-02-19T09:04:49.420Z,36.70
2019-02-19T09:07:20.170Z,32.50
2019-02-19T09:09:51.031Z,34.60
2019-02-19T09:12:21.767Z,32.53
2019-02-19T09:14:52.371Z,33.87
2019-02-19T09:17:23.233Z,31.87
2019-02-19T09:19:54.070Z,32.27
2019-02-19T09:22:24.651Z,36.47
2019-02-19T09:24:55.217Z,35.90
2019-02-19T09:27:25.976Z,36.53
2019-02-19T09:29:56.566Z,38.13
2019-02-19T09:32:27.224Z,33.10
2019-02-19T09:34:57.853Z,35.87
2019-02-19T09:37:28.879Z,36.17
2019-02-19T09:39:59.702Z,33.00
2019-02-19T09:42:30.357Z,30.57
2019-02-19T09:45:01.068Z,38.83
2019-02-19T09:47:31.780Z,37.37
2019-02-19T09:50:02.633Z,37.00
2019-02-19T09:52:33.435Z,34.10
2019-02-19T09:55:04.128Z,40.07
2019-02-19T09:57:34.712Z,39.33
2019-02-19T10:00:06.604Z,38.90
2019-02-19T10:02:37.287Z,38.27
2019-02-19T10:05:09.546Z,48.23
2019-02-19T10:07:40.242Z,33.23
2019-02-19T10:10:12.875Z,37.03
2019-02-19T10:12:43.498Z,35.77
2019-02-19T10:15:14.412Z,39.43
2019-02-19T10:17:45.487Z,37.73
2019-02-19T10:20:16.567Z,36.60
2019-02-19T10:22:47.250Z,35.83
2019-02-19T10:25:18.413Z,29.57
2019-02-19T10:27:49.398Z,30.80
2019-02-19T10:30:20.520Z,28.07
2019-02-19T10:32:51.125Z,34.90
2019-02-19T10:35:21.668Z,31.67
2019-02-19T10:37:52.263Z,27.00
2019-02-19T10:40:23.000Z,26.27
2019-02-19T10:42:53.626Z,26.67
2019-02-19T10:45:24.318Z,23.10
2019-02-19T10:47:55.138Z,23.03
2019-02-19T10:50:25.855Z,25.37
2019-02-19T10:52:56.540Z,30.97
2019-02-19T10:55:27.384Z,27.37
2019-02-19T10:57:58.093Z,31.23
2019-02-19T11:00:28.736Z,30.73
2019-02-19T11:02:59.988Z,31.87
2019-02-19T11:05:30.550Z,30.00
2019-02-19T11:08:01.193Z,27.17
2019-02-19T11:10:31.807Z,25.13
2019-02-19T11:13:02.416Z,25.23
2019-02-19T11:15:33.539Z,24.40
2019-02-19T11:18:04.251Z,25.50
2019-02-19T11:20:34.839Z,27.27
2019-02-19T11:23:05.550Z,24.17
2019-02-19T11:25:36.249Z,26.63
2019-02-19T11:28:06.811Z,23.43
2019-02-19T11:30:37.665Z,23.73
2019-02-19T11:33:08.371Z,23.20
2019-02-19T11:35:38.950Z,24.17
2019-02-19T11:38:09.558Z,25.50
2019-02-19T11:40:40.389Z,27.50
2019-02-19T11:43:12.294Z,23.87
2019-02-19T11:45:42.805Z,25.50
2019-02-19T11:48:13.643Z,24.20
2019-02-19T11:50:44.264Z,28.10
2019-02-19T11:53:14.895Z,21.50
2019-02-19T11:55:45.698Z,22.73
2019-02-19T11:58:16.301Z,23.93
2019-02-19T12:00:46.908Z,27.53
2019-02-19T12:03:17.634Z,23.80
2019-02-19T12:05:48.138Z,24.53
2019-02-19T12:08:18.916Z,27.83
2019-02-19T12:10:49.750Z,25.87
2019-02-19T12:13:20.489Z,26.67
2019-02-19T12:15:51.048Z,26.43
2019-02-19T12:18:21.834Z,24.57
2019-02-19T12:20:52.572Z,24.07
2019-02-19T12:23:23.576Z,23.87
2019-02-19T12:25:54.598Z,23.93
2019-02-19T12:28:25.280Z,25.53
2019-02-19T12:30:55.961Z,24.70
2019-02-19T12:33:26.719Z,21.70
2019-02-19T12:35:57.556Z,27.60
2019-02-19T12:38:28.193Z,25.20
2019-02-19T12:40:59.085Z,21.27
2019-02-19T12:43:29.819Z,21.80
2019-02-19T12:46:00.697Z,22.03
2019-02-19T12:48:31.543Z,25.93
2019-02-19T12:51:02.329Z,21.37
2019-02-19T12:53:33.050Z,22.07
2019-02-19T12:56:03.965Z,21.33
2019-02-19T12:58:34.549Z,26.83
2019-02-19T13:01:06.000Z,21.30
2019-02-19T13:03:36.660Z,23.07
2019-02-19T13:06:07.197Z,22.47
2019-02-19T13:08:37.802Z,18.23
2019-02-19T13:11:08.438Z,21.87
2019-02-19T13:13:39.051Z,21.93
2019-02-19T13:16:09.621Z,21.60
2019-02-19T13:18:40.444Z,22.87
2019-02-19T13:21:11.215Z,17.97
2019-02-19T13:23:41.743Z,20.27
2019-02-19T13:26:12.530Z,18.63
2019-02-19T13:28:43.143Z,17.73
2019-02-19T13:31:13.705Z,16.60
2019-02-19T13:33:44.393Z,19.07
2019-02-19T13:36:14.984Z,18.80
2019-02-19T13:38:45.581Z,17.60
2019-02-19T13:41:16.292Z,16.83
2019-02-19T13:43:46.842Z,16.87
2019-02-19T13:46:17.417Z,18.30
2019-02-19T13:48:48.098Z,19.67
2019-02-19T13:51:18.731Z,17.00
2019-02-19T13:54:00.142Z,19.27
2019-02-19T13:56:30.908Z,19.47
2019-02-19T13:59:01.601Z,17.30
2019-02-19T14:01:32.394Z,17.40
2019-02-19T14:04:03.005Z,17.57
2019-02-19T14:06:35.246Z,16.87
2019-02-19T14:09:07.746Z,22.47
2019-02-19T14:11:38.567Z,17.37
2019-02-19T14:14:27.472Z,18.27
2019-02-19T14:17:01.366Z,19.77
2019-02-19T14:19:46.736Z,18.40
2019-02-19T14:22:39.082Z,18.43
2019-02-19T14:25:28.034Z,19.50
2019-02-19T14:28:17.864Z,20.37
2019-02-19T14:31:06.579Z,17.80
2019-02-19T14:33:55.074Z,20.83
2019-02-19T14:36:43.350Z,20.47
2019-02-19T14:39:31.455Z,19.30
2019-02-19T14:42:21.331Z,20.70
2019-02-19T14:45:18.021Z,27.20
2019-02-19T14:48:06.384Z,19.00
2019-02-19T14:50:56.140Z,24.30
2019-02-19T14:53:44.725Z,20.20
2019-02-19T14:56:34.272Z,23.20
2019-02-19T14:59:29.872Z,22.00
2019-02-19T15:02:24.569Z,22.13
2019-02-19T15:05:32.603Z,25.13
2019-02-19T15:08:17.736Z,21.67
2019-02-19T15:11:02.471Z,24.00
2019-02-19T15:13:51.939Z,22.67
2019-02-19T15:16:47.180Z,24.53
2019-02-19T15:19:45.471Z,22.93
2019-02-19T15:22:36.502Z,25.60
2019-02-19T15:25:26.451Z,27.50
2019-02-19T15:28:25.360Z,22.27
2019-02-19T15:31:13.513Z,24.37
2019-02-19T15:34:09.015Z,24.47
2019-02-19T15:36:56.980Z,22.77
2019-02-19T15:39:54.208Z,24.33
2019-02-19T15:42:42.993Z,23.70
2019-02-19T15:45:35.705Z,25.53
2019-02-19T15:48:25.195Z,24.63
2019-02-19T15:51:03.834Z,26.90
2019-02-19T15:54:02.188Z,35.00
2019-02-19T15:56:50.282Z,25.90
2019-02-19T15:59:31.445Z,29.37
2019-02-19T16:02:30.259Z,28.03
2019-02-19T16:05:15.104Z,27.30
2019-02-19T16:07:50.308Z,28.67
2019-02-19T16:10:28.314Z,26.23
2019-02-19T16:13:03.716Z,24.53
2019-02-19T16:15:53.282Z,28.03
2019-02-19T16:18:31.669Z,27.20
2019-02-19T16:21:21.060Z,29.80
2019-02-19T16:24:04.074Z,30.57
2019-02-19T16:26:51.134Z,27.27
2019-02-19T16:29:49.770Z,25.57
2019-02-19T16:32:38.169Z,25.60
2019-02-19T16:35:26.331Z,29.97
2019-02-19T16:38:18.481Z,27.83
2019-02-19T16:41:13.820Z,33.87
2019-02-19T16:44:03.254Z,30.03
2019-02-19T16:46:55.710Z,29.77
2019-02-19T16:49:49.016Z,28.13
2019-02-19T16:52:38.500Z,27.80
2019-02-19T16:55:27.331Z,29.53
2019-02-19T16:58:10.947Z,31.00
2019-02-19T17:00:52.755Z,32.10
2019-02-19T17:03:35.197Z,29.57
2019-02-19T17:06:15.251Z,28.37
2019-02-19T17:09:00.498Z,28.10
2019-02-19T17:11:55.676Z,26.53
2019-02-19T17:14:51.091Z,27.53
2019-02-19T17:17:52.605Z,29.40
2019-02-19T17:20:54.230Z,28.10
2019-02-19T17:23:31.431Z,27.17
2019-02-19T17:26:18.926Z,26.83
2019-02-19T17:29:10.385Z,30.20
2019-02-19T17:32:01.230Z,28.40
2019-02-19T17:34:56.706Z,25.93
2019-02-19T17:37:45.265Z,27.23
2019-02-19T17:40:46.794Z,28.97
2019-02-19T17:43:22.755Z,30.30
2019-02-19T17:46:10.683Z,27.93
2019-02-19T17:48:57.086Z,29.80
2019-02-19T17:51:43.601Z,31.77
2019-02-19T17:54:31.769Z,32.43
2019-02-19T17:57:18.471Z,31.13
2019-02-19T18:00:08.133Z,32.63
2019-02-19T18:02:46.529Z,33.63
2019-02-19T18:05:45.373Z,32.00
2019-02-19T18:08:40.662Z,34.67
2019-02-19T18:11:30.853Z,30.37
2019-02-19T18:14:17.003Z,31.43
2019-02-19T18:17:02.663Z,32.67
2019-02-19T18:19:33.492Z,35.40
2019-02-19T18:22:04.514Z,32.63
2019-02-19T18:24:35.865Z,30.87
2019-02-19T18:27:06.916Z,33.23
2019-02-19T18:29:37.720Z,29.60
2019-02-19T18:32:08.903Z,29.57
2019-02-19T18:34:39.985Z,31.53
2019-02-19T18:37:10.865Z,31.47
2019-02-19T18:39:41.489Z,27.03
2019-02-19T18:42:12.474Z,27.93
2019-02-19T18:44:43.381Z,25.97
2019-02-19T18:47:14.403Z,26.73
2019-02-19T18:49:46.206Z,28.03
2019-02-19T18:52:16.928Z,27.37
2019-02-19T18:54:47.925Z,29.67
2019-02-19T18:57:18.863Z,32.73
2019-02-19T18:59:49.665Z,39.70
2019-02-19T19:02:20.252Z,33.50
2019-02-19T19:04:50.886Z,31.63
2019-02-19T19:07:23.384Z,32.10
2019-02-19T19:09:53.963Z,38.20
2019-02-19T19:12:24.523Z,28.97
2019-02-19T19:14:56.228Z,31.23
2019-02-19T19:17:26.914Z,30.23
2019-02-19T19:19:58.098Z,32.13
2019-02-19T19:22:29.187Z,27.90
2019-02-19T19:24:59.687Z,28.57
2019-02-19T19:27:30.485Z,30.90
2019-02-19T19:30:01.157Z,29.13
2019-02-19T19:32:31.706Z,30.20
2019-02-19T19:35:02.698Z,28.43
2019-02-19T19:37:33.446Z,30.27
2019-02-19T19:40:04.184Z,27.87
2019-02-19T19:42:34.985Z,29.97
2019-02-19T19:45:06.200Z,29.47
2019-02-19T19:47:39.436Z,29.10
2019-02-19T19:50:10.407Z,33.17
2019-02-19T19:52:43.533Z,35.40
2019-02-19T19:55:14.268Z,35.27
2019-02-19T19:57:45.109Z,37.13
2019-02-19T20:00:16.020Z,43.30
2019-02-19T20:02:46.882Z,46.57
2019-02-19T20:05:17.827Z,39.20
2019-02-19T20:07:48.519Z,43.33
2019-02-19T20:10:20.656Z,38.90
2019-02-19T20:12:51.571Z,40.90
2019-02-19T20:15:22.196Z,45.53
2019-02-19T20:17:52.810Z,47.87
2019-02-19T20:20:25.154Z,52.23
2019-02-19T20:22:55.771Z,53.53
2019-02-19T20:25:26.346Z,54.67
2019-02-19T20:27:57.227Z,57.17
2019-02-19T20:30:27.959Z,57.83
2019-02-19T20:32:58.583Z,58.03
2019-02-19T20:35:30.275Z,59.80
2019-02-19T20:38:00.851Z,65.13
2019-02-19T20:40:31.849Z,70.73
2019-02-19T20:43:02.410Z,70.47
2019-02-19T20:45:33.129Z,62.20
2019-02-19T20:48:03.800Z,59.97
2019-02-19T20:50:34.399Z,64.63
2019-02-19T20:53:05.194Z,77.40
2019-02-19T20:55:37.418Z,92.93
2019-02-19T20:58:09.618Z,81.73
2019-02-19T21:00:40.461Z,74.93
2019-02-19T21:03:14.881Z,68.47
2019-02-19T21:05:46.004Z,72.00
2019-02-19T21:08:16.698Z,64.33
2019-02-19T21:10:47.455Z,63.63
2019-02-19T21:13:18.100Z,65.47
2019-02-19T21:15:48.772Z,67.03
2019-02-19T21:18:19.340Z,73.67
2019-02-19T21:20:49.941Z,68.37
2019-02-19T21:23:20.641Z,61.93
2019-02-19T21:25:51.317Z,62.23
2019-02-19T21:28:22.021Z,63.27
2019-02-19T21:30:52.610Z,53.57
2019-02-19T21:33:23.222Z,53.90
2019-02-19T21:35:57.932Z,57.83
2019-02-19T21:38:26.262Z,52.03
2019-02-19T21:40:57.183Z,52.57
2019-02-19T21:43:27.888Z,56.13
2019-02-19T21:45:58.479Z,52.63
2019-02-19T21:48:29.196Z,52.75
2019-02-19T21:50:59.849Z,52.00
2019-02-19T21:53:30.558Z,49.83
2019-02-19T21:56:01.236Z,50.43
2019-02-19T21:58:31.890Z,49.10
2019-02-19T22:01:04.770Z,54.20
2019-02-19T22:03:36.467Z,47.20
2019-02-19T22:06:07.436Z,50.17
2019-02-19T22:08:39.141Z,48.50
2019-02-19T22:11:10.368Z,43.87
2019-02-19T22:13:41.907Z,51.83
2019-02-19T22:16:14.474Z,51.87
2019-02-19T22:18:46.462Z,49.33
2019-02-19T22:21:43.717Z,53.17
2019-02-19T22:24:35.506Z,48.27
2019-02-19T22:27:08.629Z,49.93
2019-02-19T22:29:40.751Z,46.80
2019-02-19T22:32:14.027Z,49.90
2019-02-19T22:34:46.118Z,49.10
2019-02-19T22:37:18.245Z,52.37
2019-02-19T22:39:49.798Z,47.20
2019-02-19T22:42:21.590Z,50.30
2019-02-19T22:44:52.912Z,47.17
2019-02-19T22:47:25.929Z,47.20
2019-02-19T22:49:57.877Z,43.47
2019-02-19T22:52:29.704Z,43.70
2019-02-19T22:55:21.766Z,42.67
2019-02-19T22:57:53.667Z,42.50
2019-02-19T23:00:59.440Z,39.40
2019-02-19T23:03:30.971Z,40.10
2019-02-19T23:06:03.381Z,38.47
2019-02-19T23:08:35.455Z,42.27
2019-02-19T23:11:07.873Z,40.77
2019-02-19T23:13:40.096Z,44.13
2019-02-19T23:16:12.109Z,43.57
2019-02-19T23:18:44.090Z,40.63
2019-02-19T23:21:15.381Z,42.73
2019-02-19T23:23:47.396Z,39.83
2019-02-19T23:26:19.629Z,41.80
2019-02-19T23:28:51.557Z,42.47
2019-02-19T23:31:23.098Z,41.57
2019-02-19T23:33:55.754Z,44.53
2019-02-19T23:36:53.373Z,42.87
2019-02-19T23:39:25.752Z,41.70
2019-02-19T23:41:57.121Z,42.97
2019-02-19T23:44:28.844Z,42.93
2019-02-19T23:47:00.296Z,42.10
2019-02-19T23:49:31.780Z,41.17
2019-02-19T23:52:03.099Z,45.37
2019-02-19T23:54:34.415Z,44.37
2019-02-19T23:57:06.488Z,45.83
2019-02-19T23:59:38.514Z,43.10
